New Delhi Safdarjung, India

2:12 PM IST on February 01, 2015 (GMT +0530)
New Delhi - GK2 | Change Station
CLOSE
Current Station
Personal Weather Station
Location: New Delhi, Delhi
Elevation: 810 ft
Nearby Weather Stations

Elev 810 ft 28.53 °N, 77.24 °E | Updated 7 seconds ago

Smoke
Smoke
70.9 °F
Feels Like 77 °F
N
4.0
Wind Variable Wind from SSW
Gusts 8.0 mph

Today
High -- | Low -- °F
--% Chance of Precip.
Yesterday
High -- | Low -- °F
Precip. -- in
7:09 AM 6:00 PM
Waxing Gibbous, 94% visible
Pressure 30.04 in
Visibility 1.7 miles
Clouds Scattered Clouds 10000 ft
Heat Index 77 °F
Dew Point 48 °F
Humidity 45%
Rainfall 0.00 in
Snow Depth Not available.
UV 1.5 out of 12
Pollen Not available.
Air Quality Not available.
Flu Activity Not available.
METAR VIDP 010730Z 17007KT 2800 FU SCT100 21/07 Q1017 BECMG VIS 3000

More Conditions Fewer Conditions

Pressure 30.04 in
Visibility 1.7 miles
Clouds Scattered Clouds 10000 ft
Heat Index 77 °F
Dew Point 48 °F
Humidity 45%
Rainfall 0.00 in
Snow Depth Not available.
UV 1.5 out of 12
Pollen Not available.
Air Quality Not available.
Flu Activity Not available.
METAR VIDP 010730Z 17007KT 2800 FU SCT100 21/07 Q1017 BECMG VIS 3000

More Conditions Fewer Conditions

10-Day Weather Forecast

Almanac

Astronomy

Feb. 01, 2015 Rise Set
Actual Time
Civil Twilight
Nautical Twilight
Astronomical Twilight
Moon
Length of Visible Light
Length of Day
Tomorrow will be .
, % of the Moon is Illuminated

Today's Extremes

Country Highs Country Lows

Community

WunderPhotos

Upload Photos

1,792,338 photos uploaded!

WunderBlogs® & News

Nearby

Air Quality

  Air Quality AQ Index Pollutant
Not available.

Snow Depth

Station Depth Elevation

Earthquake Activity

City Distance Mag. Time & Date
Minimum magnitude displayed is 2.5.

Coastal Water Temperatures

Place Temperature

Nearby Weather Stations